Startpagina
METAR-TAF:

METAR-TAF

Vliegvelden :

Livingstone, Zambia

breedte: 17-49-18S, lengte: 025-49-22E, hoogte: 991 m

METAR: ontbreekt

Tijdstip: 11:55 (09:55 UTC)

Verwachting

Dit bericht is 23 uur en het 55 minuten geleden gemaakt, om 10:00 UTC
Verwachting geldig van 24 om 12 UTC tot 25 om 18 UTC
Wind 10 kt uit het oosten
Zicht 10 km of meer
geen wolken onder 1500 m en geen cumulonimbus
Wijzigt naar
van 24 om 18 UTC tot 24 om 20 UTC
Wind 5 kt uit het oostzuidoosten
Wijzigt naar
van 25 om 06 UTC tot 25 om 08 UTC
Wind 10 kt uit het oosten
Wijzigt naar
van 25 om 12 UTC tot 25 om 14 UTC
Wind 5 kt uit het oostnoordoosten

TAF: FLHN 241000Z 2412/2518 08010KT CAVOK BECMG 2418/2420 12005KT BECMG 2506/2508 09010KT BECMG 2512/2514 06005KT

Waarnemingen en weersverwachtingen van meer dan 4000 vliegvelden (METAR en TAF).

De beschikbare stations zijn de gele en rode punten op de kaart.

Ga met uw muis naar het station om de naam te zien.

Klik dan om waarnemingen en weersverwachtingen te zien.

kaart wijzigen: klik op de groene knoppen met een zwart kruis om in te zoomen, op de groene knop met een streepje om uit te zoomen of op de groene pijlen voor aangrenzende kaarten.


METAR-TAF: